Date,TemperatureHighF,TemperatureAvgF,TemperatureLowF,DewpointHighF,DewpointAvgF,DewpointLowF,HumidityHigh,HumidityAvg,HumidityLow,PressureMaxIn,PressureMinIn,WindSpeedMaxMPH,WindSpeedAvgMPH,GustSpeedMaxMPH,PrecipitationSumIn
2012-1-1,80,71,62,69,64,56,85,79,65,29.98,29.87,12,5,18,0.00
2012-1-2,80,71,62,69,64,58,89,80,62,30.03,29.93,7,2,0,0.00
2012-1-3,80,73,66,71,68,62,94,83,69,30.11,29.98,17,8,24,0.00
2012-1-4,84,75,69,71,68,62,92,79,54,30.13,30.00,16,6,26,0.00
2012-1-5,83,71,62,66,61,57,88,71,46,30.13,29.97,16,4,29,0.00
2012-1-6,83,70,60,64,59,54,82,69,47,30.06,29.93,17,4,28,0.00
2012-1-7,80,69,60,63,59,54,84,69,52,30.03,29.95,10,3,0,0.00
2012-1-8,80,70,59,67,61,53,84,74,56,30.03,29.92,8,2,0,0.00
2012-1-9,82,71,60,68,62,55,85,75,57,30.03,29.91,20,5,0,0.00
2012-1-10,82,72,61,68,63,57,89,75,49,30.02,29.87,15,6,0,0.00
2012-1-11,79,71,62,66,63,57,86,75,57,29.97,29.85,10,4,0,0.00
2012-1-12,76,71,64,67,64,59,86,78,67,29.90,29.77,13,4,0,0.00
2012-1-14,77,74,69,66,64,61,82,71,59,29.86,29.77,13,6,19,0.00
2012-1-15,80,76,72,71,68,58,84,75,55,29.93,29.76,22,12,33,0.00
2012-1-16,81,77,75,72,70,68,87,79,69,29.94,29.83,19,11,26,0.00
2012-1-17,81,76,74,71,70,67,87,80,66,29.94,29.82,23,14,35,0.00
2012-1-18,80,75,68,71,69,64,88,82,68,30.00,29.87,13,9,21,0.00
2012-1-19,79,72,64,70,65,61,89,81,70,30.05,29.94,20,8,28,0.00
2012-1-20,82,73,62,68,64,58,90,76,58,30.06,29.94,10,5,16,0.00
2012-1-21,86,73,64,68,64,60,89,73,51,30.07,29.92,21,6,32,0.00
2012-1-22,83,74,63,66,63,58,85,69,50,30.01,29.84,15,4,23,0.00
2012-1-23,80,73,65,67,64,59,89,75,58,29.98,29.88,7,3,14,0.00
2012-1-24,82,72,63,69,64,57,85,76,58,29.97,29.86,10,3,16,0.00
2012-1-25,81,72,64,68,64,60,87,76,59,29.95,29.86,9,3,0,0.00
2012-1-26,67,64,62,61,58,55,81,79,77,29.92,29.86,5,2,0,0.00
2012-1-28,83,77,70,66,64,60,86,65,50,30.04,29.89,17,10,28,0.00
2012-1-29,82,73,67,66,63,58,86,71,52,30.06,29.93,24,11,44,0.00
2012-1-30,81,71,60,66,61,56,88,72,53,30.04,29.88,19,5,29,0.00
2012-1-31,76,68,62,64,60,56,87,77,61,29.95,29.87,6,3,0,0.00
2012-2-1,81,71,60,62,58,53,79,66,43,29.99,29.83,16,7,25,0.00
2012-2-2,80,71,60,64,60,52,85,67,47,29.97,29.88,16,6,24,0.00
2012-2-3,80,70,60,65,60,54,85,72,49,29.96,29.80,16,5,23,0.00
2012-2-4,80,73,64,69,64,56,85,75,63,29.83,29.69,19,6,31,0.00
2012-2-5,81,73,67,71,67,63,89,82,62,29.85,29.70,16,7,24,0.00
2012-2-6,78,71,62,68,65,58,91,80,67,29.85,29.76,16,7,22,0.17
2012-2-7,77,72,67,68,66,63,93,82,66,29.87,29.74,27,14,38,0.35
2012-2-8,75,69,63,66,58,53,94,70,49,30.05,29.85,16,6,32,0.00
2012-2-9,77,69,59,60,57,54,85,68,48,30.19,30.02,15,7,25,0.00
2012-2-10,81,71,59,63,59,53,83,67,49,30.18,30.02,13,5,25,0.00
2012-2-11,82,72,60,65,60,53,84,68,48,30.16,30.03,9,4,21,0.00
2012-2-12,82,72,62,67,63,57,88,76,56,30.14,29.99,10,4,21,0.00
2012-2-13,82,72,64,66,64,60,90,76,54,30.11,29.95,10,4,30,0.00
2012-2-14,80,73,64,67,64,60,88,74,56,30.06,29.95,8,3,14,0.00
2012-2-15,81,72,63,67,63,59,89,74,54,30.10,29.97,11,4,0,0.00
2012-2-16,84,73,62,68,62,57,85,71,49,30.11,29.96,15,4,0,0.00
2012-2-17,76,69,65,64,62,60,86,80,62,30.11,30.05,11,5,0,0.00
2012-2-23,82,74,69,67,65,63,85,74,58,29.92,29.79,10,6,24,0.00
2012-2-24,82,73,65,68,65,61,89,76,59,29.92,29.80,8,4,15,0.00
2012-2-25,82,73,65,69,66,61,88,77,59,29.93,29.84,11,4,19,0.00
2012-2-26,83,74,65,68,63,60,88,71,51,29.98,29.83,10,5,19,0.00
2012-2-27,83,73,65,67,63,60,84,70,50,29.99,29.86,15,5,24,0.00
2012-2-28,84,73,64,65,63,59,84,71,49,29.99,29.89,10,5,19,0.00
2012-2-29,81,73,67,66,63,61,86,71,54,29.99,29.89,14,6,22,0.00
2012-3-1,82,72,66,67,63,60,85,73,59,30.00,29.89,15,6,24,0.00
2012-3-2,82,73,63,67,64,58,86,75,57,30.01,29.89,11,5,22,0.00
2012-3-3,84,73,68,67,65,63,87,77,56,29.97,29.84,20,8,29,0.03
2012-3-4,79,72,64,67,64,60,88,77,61,29.91,29.79,16,6,24,0.00
2012-3-5,73,69,67,66,64,62,88,84,78,29.86,29.78,7,2,0,0.01
2012-3-8,73,69,66,68,66,64,93,89,83,29.96,29.89,21,16,31,0.12
2012-3-9,85,73,66,68,64,61,93,76,47,29.96,29.81,18,6,26,0.00
2012-3-10,83,73,65,68,64,60,89,74,52,30.02,29.90,20,7,32,0.00
2012-3-11,86,74,64,66,63,59,90,71,43,30.04,29.91,22,7,32,0.00
2012-3-12,76,71,68,68,65,61,91,81,69,30.05,29.93,27,17,45,0.00
2012-3-13,79,72,67,65,62,56,82,70,50,30.01,29.89,22,15,35,0.00
2012-3-14,80,72,66,64,62,60,84,71,53,30.03,29.87,20,13,30,0.00
2012-3-15,83,72,64,65,62,57,86,69,49,30.06,29.92,23,11,34,0.00
2012-3-16,84,73,62,66,62,57,87,69,47,30.10,29.95,16,5,25,0.00
2012-3-17,85,73,62,66,62,57,86,71,47,30.08,29.93,16,5,28,0.00
2012-3-18,82,72,62,68,64,59,92,77,58,30.01,29.92,17,6,26,0.00
2012-3-19,82,73,65,66,63,61,89,71,51,29.98,29.87,16,7,24,0.00
2012-3-20,82,72,61,67,62,56,89,73,51,30.02,29.90,18,7,27,0.00
2012-3-21,83,72,62,68,63,57,89,74,50,30.03,29.90,22,12,34,0.00
2012-3-22,81,73,69,65,63,60,82,70,53,30.02,29.85,26,17,40,0.00
2012-3-23,84,74,64,65,62,57,84,67,43,29.98,29.86,20,9,35,0.00
2012-3-24,82,72,64,66,63,59,86,74,54,30.02,29.91,21,9,32,0.00
2012-3-25,80,72,68,65,63,60,85,72,51,30.02,29.91,22,15,32,0.00
2012-3-26,78,71,67,63,61,57,86,71,49,30.01,29.94,19,13,28,0.00
2012-3-27,78,71,64,65,62,58,86,73,60,30.01,29.89,24,15,34,0.00
2012-3-28,80,71,63,64,61,55,83,70,54,30.00,29.90,25,11,33,0.00
2012-3-29,80,70,60,64,60,55,85,72,53,30.04,29.94,23,10,32,0.00
2012-3-30,81,73,66,66,61,53,81,66,44,30.02,29.90,29,18,43,0.00
2012-3-31,84,72,59,66,60,52,85,67,43,30.05,29.89,19,8,29,0.00
2012-4-1,82,73,64,67,65,60,87,75,58,30.06,29.93,14,6,21,0.00
2012-4-2,81,72,64,68,65,60,90,77,59,30.03,29.89,19,9,27,0.00
2012-4-3,82,73,64,67,64,59,87,74,53,29.99,29.85,19,7,30,0.00
2012-4-4,84,74,64,68,65,60,88,74,55,29.95,29.84,17,7,26,0.00
2012-4-5,82,73,66,66,64,62,88,73,52,29.96,29.83,18,7,0,0.00
2012-4-6,83,74,64,68,64,59,86,72,54,30.01,29.83,20,8,0,0.00
2012-4-7,80,73,67,67,64,61,87,73,58,30.05,29.93,26,14,0,0.00
2012-4-8,81,73,67,66,64,62,92,75,55,30.07,29.94,24,15,0,0.01
2012-4-9,79,72,67,64,62,58,90,72,55,30.06,29.95,24,14,0,0.00
2012-4-10,82,70,60,64,61,56,86,72,50,30.05,29.93,18,8,0,0.00
2012-4-11,82,72,62,64,62,57,85,70,50,30.05,29.92,15,7,0,0.00
2012-4-12,83,73,63,68,63,57,84,72,52,30.08,29.94,15,6,0,0.00
2012-4-13,83,73,64,67,64,58,84,73,55,30.08,29.97,12,4,0,0.00
2012-4-14,83,73,64,69,65,60,87,76,51,30.09,29.97,26,11,0,0.00
2012-4-15,85,74,64,69,63,59,88,70,48,30.07,29.93,21,9,0,0.00
2012-4-16,71,68,66,63,61,59,82,78,74,30.02,29.97,12,5,0,0.00
2012-4-18,85,78,70,66,63,61,76,60,47,30.04,29.92,18,9,35,0.00
2012-4-19,81,73,66,66,62,58,80,68,56,30.03,29.91,24,11,35,0.00
2012-4-20,80,73,68,66,63,61,84,71,52,30.01,29.88,22,14,32,0.00
2012-4-21,80,73,68,66,63,61,83,72,55,29.98,29.86,25,16,35,0.00
2012-4-22,80,73,68,67,64,60,84,73,55,30.00,29.86,25,16,40,0.00
2012-4-23,79,72,68,66,63,59,90,75,58,30.05,29.93,26,18,41,0.00
2012-4-24,83,74,68,65,62,60,81,67,49,30.07,29.94,19,11,31,0.00
2012-4-25,83,73,66,66,63,60,84,70,52,30.02,29.91,16,6,24,0.00
2012-4-26,82,73,64,67,64,60,88,74,55,30.00,29.92,14,6,21,0.00
2012-4-27,84,75,67,67,65,62,87,71,52,30.02,29.91,18,7,25,0.00
2012-4-28,87,75,65,67,64,59,86,69,46,30.04,29.91,18,7,30,0.00
2012-4-29,85,76,65,67,64,60,85,67,49,30.05,29.93,19,7,27,0.00
2012-4-30,86,76,69,66,64,60,87,67,46,30.04,29.88,23,14,39,0.00
2012-5-1,85,74,63,67,63,56,84,70,49,30.03,29.86,19,7,31,0.00
2012-5-2,84,75,64,67,62,56,87,66,41,30.00,29.84,23,11,45,0.00
2012-5-3,81,73,68,67,65,63,87,76,57,30.01,29.89,26,14,39,0.00
2012-5-4,83,74,69,68,65,62,89,74,54,30.01,29.88,22,12,35,0.00
2012-5-5,85,74,64,67,64,60,89,71,47,30.00,29.88,22,9,32,0.00
2012-5-6,86,74,62,68,64,56,86,71,50,30.01,29.87,21,8,32,0.00
2012-5-7,85,75,69,67,65,60,88,71,50,30.05,29.93,23,15,34,0.00
2012-5-8,82,74,68,66,63,59,85,70,48,30.07,29.97,21,14,31,0.00
2012-5-9,83,74,68,66,63,59,80,69,47,30.02,29.92,25,15,36,0.00
2012-5-10,83,74,67,66,64,60,87,71,50,29.99,29.89,23,13,30,0.00
2012-5-11,85,74,65,65,62,59,85,68,45,29.96,29.83,24,11,35,0.00
2012-5-12,82,72,62,64,60,54,85,67,41,29.98,29.88,17,8,30,0.00
2012-5-13,80,71,61,63,60,52,80,69,51,29.97,29.88,16,8,23,0.00
2012-5-14,81,72,62,65,61,54,83,69,50,29.94,29.84,13,6,20,0.00
2012-5-15,82,73,62,67,63,57,84,71,52,29.96,29.85,18,8,27,0.00
2012-5-16,83,74,64,69,64,59,86,73,57,30.00,29.90,16,7,25,0.00
2012-5-17,73,72,71,64,62,61,76,72,70,29.98,29.97,15,10,23,0.00
2012-5-21,84,78,73,69,67,62,80,68,57,30.04,29.94,18,13,26,0.00
2012-5-22,86,76,65,68,64,59,84,67,44,30.03,29.93,25,16,40,0.00
2012-5-23,86,76,66,67,64,58,82,67,51,30.01,29.89,20,8,34,0.00
2012-5-24,87,76,67,68,66,62,88,71,50,30.02,29.90,18,8,29,0.00
2012-5-25,89,78,71,68,65,61,83,66,41,30.00,29.85,22,13,38,0.00
2012-5-26,74,72,71,67,66,64,86,79,71,29.96,29.90,17,11,27,0.00
2012-5-28,86,78,72,67,65,61,78,64,45,30.03,29.91,22,16,37,0.00
2012-5-29,85,76,70,67,64,60,80,66,48,30.05,29.90,24,17,39,0.00
2012-5-30,84,75,69,67,65,61,82,71,52,30.04,29.93,25,14,35,0.00
2012-5-31,82,74,69,68,65,61,90,74,52,30.07,29.96,26,17,37,0.00
2012-6-1,80,74,69,69,66,62,88,77,65,30.06,29.94,28,18,41,0.00
2012-6-2,81,74,69,66,64,61,84,72,51,30.06,29.95,27,17,42,0.00
2012-6-3,82,75,69,65,64,60,81,70,50,30.01,29.92,23,17,34,0.00
2012-6-4,83,74,64,69,65,59,89,74,58,30.00,29.89,24,12,37,0.00
2012-6-5,86,76,68,71,67,63,87,75,56,30.00,29.90,25,10,37,0.00
2012-6-6,86,76,68,70,66,63,90,74,51,29.99,29.89,18,8,30,0.00
2012-6-7,86,76,66,70,66,61,87,73,49,29.98,29.87,21,8,29,0.00
2012-6-8,84,76,68,69,66,62,89,72,54,29.97,29.86,21,7,30,0.00
2012-6-9,85,79,70,68,66,62,83,66,53,29.96,29.82,19,9,29,0.00
2012-6-10,72,71,70,66,65,64,83,82,79,29.93,29.90,8,4,13,0.00
2012-6-13,86,79,73,70,69,67,83,72,55,29.96,29.86,18,10,26,0.00
2012-6-14,85,77,70,69,67,65,86,72,54,29.97,29.88,17,8,24,0.00
2012-6-15,85,76,66,70,65,60,85,70,54,30.01,29.93,21,9,31,0.00
2012-6-16,87,76,64,69,65,58,85,69,51,30.03,29.89,22,9,33,0.00
2012-6-17,86,76,70,68,66,64,82,71,51,30.05,29.94,26,12,39,0.00
2012-6-18,72,72,72,66,66,66,81,81,80,30.03,29.98,22,20,31,0.00
2012-6-20,78,74,71,69,66,65,82,76,66,29.95,29.87,19,12,26,0.00
2012-6-21,82,75,70,69,67,65,88,76,59,29.98,29.90,23,13,31,0.00
2012-6-22,84,76,67,70,67,63,89,75,60,30.00,29.85,27,8,46,0.00
2012-6-23,83,75,71,71,67,64,92,77,55,29.99,29.92,25,15,37,0.01
2012-6-24,86,77,70,68,66,62,84,69,49,30.03,29.89,25,16,38,0.00
2012-6-25,82,75,71,70,67,63,89,76,64,30.05,29.97,28,18,41,0.00
2012-6-26,82,76,71,68,66,62,86,72,52,30.03,29.94,27,19,40,0.00
2012-6-27,81,74,70,68,65,61,85,74,58,29.98,29.89,25,17,37,0.00
2012-6-28,82,74,68,70,67,62,87,79,64,30.01,29.89,22,14,34,0.03
2012-6-29,85,75,71,67,65,61,86,72,47,30.02,29.92,21,13,31,0.00
2012-6-30,83,75,67,70,66,62,85,73,56,30.00,29.85,28,13,37,0.00
2012-7-1,72,70,68,67,66,64,87,85,84,29.93,29.87,8,6,0,0.00
2012-7-7,85,78,72,69,66,-100,83,69,53,29.97,29.86,255,20,46,0.00
2012-7-8,85,75,70,68,66,60,88,73,44,29.98,29.89,26,17,42,0.00
2012-7-9,84,76,70,67,65,60,83,68,47,30.00,29.89,26,16,40,0.00
2012-7-10,85,76,69,68,64,58,84,68,50,29.99,29.85,25,14,37,0.00
2012-7-11,86,77,67,67,63,57,85,64,40,29.96,29.85,24,12,34,0.00
2012-7-12,84,75,65,71,66,59,90,75,49,29.94,29.85,22,12,31,0.00
2012-7-13,87,78,68,71,67,64,89,72,52,29.91,29.80,25,11,39,0.00
2012-7-14,87,77,68,69,66,62,84,69,47,29.98,29.86,26,10,37,0.00
2012-7-15,84,76,71,70,66,63,85,73,54,29.96,29.85,26,15,38,0.00
2012-7-16,86,76,66,72,68,61,87,77,57,29.95,29.85,24,11,38,0.00
2012-7-17,84,77,71,72,69,66,88,77,63,29.92,29.81,26,13,35,0.00
2012-7-18,89,78,72,72,69,66,87,73,52,29.97,29.84,21,11,32,0.00
2012-7-19,83,76,71,69,67,64,86,72,56,29.97,29.88,25,16,34,0.00
2012-7-20,82,75,67,70,67,63,88,76,58,29.96,29.89,19,10,26,0.00
2012-7-21,83,75,66,68,65,60,86,72,57,29.95,29.87,15,5,19,0.00
2012-7-22,85,75,64,71,66,60,86,75,57,29.96,29.88,20,7,27,0.00
2012-7-23,87,76,68,70,67,64,86,72,51,29.99,29.87,28,8,38,0.00
2012-7-24,86,77,68,68,65,60,87,67,47,29.96,29.83,26,10,41,0.00
2012-7-25,87,77,68,69,64,61,83,66,43,29.94,29.81,21,11,26,0.00
2012-7-26,87,76,65,67,63,58,79,65,45,29.93,29.79,22,9,0,0.00
2012-7-27,83,75,68,70,67,61,85,75,60,29.96,29.85,24,12,33,0.00
2012-7-28,85,75,68,70,66,62,88,75,56,29.96,29.86,21,9,31,0.00
2012-7-29,85,73,69,70,67,64,89,82,59,29.97,29.90,7,3,16,0.00
2012-8-1,78,76,73,69,68,65,80,75,71,29.98,29.91,17,10,23,0.00
2012-8-2,86,77,69,70,67,64,86,73,54,29.98,29.89,20,9,34,0.00
2012-8-3,85,76,68,70,67,63,86,73,56,29.98,29.90,20,8,28,0.00
2012-8-4,87,76,68,70,66,62,86,72,49,29.97,29.88,26,10,34,0.00
2012-8-5,87,77,69,70,67,62,86,73,47,29.97,29.88,23,12,29,0.00
2012-8-6,87,77,68,68,65,62,87,68,44,29.97,29.85,22,7,32,0.00
2012-8-7,88,78,67,67,65,60,83,66,45,29.97,29.83,17,6,30,0.00
2012-8-8,88,78,71,69,67,64,81,68,50,30.00,29.86,20,8,31,0.00
2012-8-9,86,76,68,73,69,64,89,77,59,30.02,29.90,28,12,37,0.00
2012-8-10,85,77,72,70,67,61,83,72,46,30.00,29.88,22,14,32,0.00
2012-8-11,84,76,70,70,67,64,88,72,59,29.95,29.83,23,11,34,0.00
2012-8-12,89,78,68,71,66,63,84,69,49,29.96,29.81,20,7,33,0.00
2012-8-13,88,79,71,71,69,66,87,73,54,29.98,29.84,22,11,31,0.00
2012-8-14,86,78,72,69,67,63,85,69,49,29.96,29.84,26,17,40,0.00
2012-8-15,86,79,73,68,66,62,80,65,48,29.93,29.81,24,15,37,0.00
2012-8-16,86,78,71,70,65,61,82,65,47,29.97,29.83,25,13,35,0.00
2012-8-17,84,77,71,68,66,63,83,69,51,29.96,29.88,22,13,32,0.00
2012-8-18,81,74,70,70,67,63,85,80,68,29.95,29.89,16,9,24,0.00
2012-8-19,89,78,68,71,68,65,91,73,49,29.93,29.81,25,10,34,0.00
2012-8-20,86,78,73,74,70,67,88,77,59,29.98,29.85,28,15,38,0.00
2012-8-21,86,78,71,71,69,66,87,75,57,29.99,29.91,20,12,31,0.00
2012-8-22,88,77,67,72,68,62,87,75,54,29.99,29.91,24,9,33,0.00
2012-8-23,89,77,68,70,67,62,85,71,50,29.98,29.86,16,7,23,0.00
2012-8-24,87,78,70,70,68,65,85,72,51,30.00,29.90,16,7,24,0.00
2012-8-25,87,77,66,69,66,61,88,71,49,30.01,29.89,25,12,37,0.00
2012-8-26,86,78,72,68,66,62,83,67,48,29.98,29.86,25,15,33,0.00
2012-8-27,86,77,71,71,67,64,86,72,55,29.96,29.85,21,15,32,0.00
2012-8-28,84,76,70,68,66,63,87,71,51,29.95,29.86,21,13,33,0.00
2012-8-29,86,77,69,70,67,64,86,72,55,29.95,29.85,19,7,29,0.00
2012-8-30,86,76,68,71,67,62,86,73,52,29.95,29.84,23,8,39,0.00
2012-8-31,87,78,70,70,66,61,87,70,50,29.98,29.88,19,8,29,0.00
2012-9-1,89,78,66,68,65,61,85,65,42,29.99,29.86,23,10,35,0.00
2012-9-2,86,78,70,68,66,63,85,67,48,29.99,29.85,22,15,36,0.00
2012-9-15,76,73,71,66,65,64,81,75,71,29.95,29.87,15,7,11,0.00
2012-9-16,82,76,69,70,66,64,87,73,60,29.97,29.86,25,13,32,0.00
2012-9-17,88,77,67,68,65,61,85,69,45,29.95,29.80,21,8,31,0.00
2012-9-18,85,76,68,68,66,61,85,71,48,29.91,29.78,24,9,32,0.00
2012-9-19,82,75,69,73,69,63,94,81,71,29.93,29.85,15,9,22,0.01
2012-9-20,83,77,71,73,71,69,95,82,63,29.96,29.87,19,8,25,0.12
2012-9-21,88,77,68,71,68,64,89,74,50,29.94,29.82,23,6,34,0.00
2012-9-22,86,76,67,70,67,62,88,74,47,29.93,29.83,21,10,31,0.00
2012-9-23,89,78,71,74,71,67,93,81,55,29.96,29.84,24,13,36,0.00
2012-9-24,84,78,72,72,69,67,90,76,59,29.96,29.85,24,16,36,0.00
2012-9-25,86,78,70,70,67,63,86,70,53,29.98,29.85,21,11,31,0.00
2012-9-26,87,77,67,70,67,62,87,73,50,29.98,29.82,23,11,34,0.00
2012-9-27,84,76,71,70,68,65,87,76,58,29.96,29.86,22,13,33,0.00
2012-9-28,87,77,67,71,66,62,89,70,50,29.93,29.79,23,9,32,0.00
2012-9-29,85,77,67,70,66,61,84,70,51,29.92,29.81,16,6,24,0.00
2012-9-30,85,77,68,69,66,61,87,68,51,29.91,29.80,13,6,19,0.00
2012-10-1,84,77,66,69,66,61,85,69,54,29.90,29.79,13,6,22,0.00
2012-10-2,82,77,72,71,69,66,84,77,63,29.91,29.80,14,7,15,0.00
2012-10-3,84,77,69,71,68,65,88,75,59,29.94,29.84,16,7,23,0.00
2012-10-4,85,76,68,70,66,63,87,72,54,29.94,29.85,16,6,22,0.00
2012-10-5,73,69,67,66,64,62,86,83,79,29.93,29.87,5,2,0,0.00
2012-10-7,83,79,77,73,71,70,82,76,66,29.85,29.75,17,10,23,0.00
2012-10-8,83,78,72,73,71,67,88,77,67,29.90,29.80,18,9,24,0.00
2012-10-9,87,77,69,73,69,63,89,76,60,29.99,29.87,13,4,19,0.00
2012-10-10,84,76,69,74,71,65,90,83,64,29.99,29.88,21,7,29,0.00
2012-10-11,76,74,72,71,70,67,87,86,85,29.98,29.94,8,5,0,0.00
2012-10-12,86,80,74,70,68,65,82,67,53,30.04,29.89,24,13,33,0.00
2012-10-13,87,77,67,71,67,62,84,73,53,30.04,29.91,25,10,35,0.00
2012-10-14,89,78,68,71,67,63,88,71,48,30.01,29.89,22,9,35,0.00
2012-10-15,88,80,71,70,68,66,85,67,50,29.98,29.83,21,8,32,0.00
2012-10-16,84,75,66,71,67,62,88,77,57,29.93,29.82,18,6,25,0.00
2012-10-17,86,76,66,70,66,62,88,74,52,29.89,29.79,18,6,27,0.00
2012-10-18,73,69,67,66,64,61,85,82,78,29.89,29.88,4,2,0,0.00
2012-10-26,85,78,69,70,68,62,88,73,54,29.99,29.89,13,7,18,0.00
2012-10-27,86,76,67,73,68,62,86,75,57,29.98,29.86,19,10,28,0.00
2012-10-28,82,76,70,72,67,63,84,74,62,29.93,29.82,22,13,31,0.00
2012-10-29,84,75,66,70,66,60,85,72,59,29.97,29.84,21,12,31,0.00
2012-10-30,85,75,65,70,66,59,85,73,55,29.99,29.85,21,8,34,0.00
2012-10-31,71,70,70,65,65,64,83,82,82,29.98,29.95,3,2,0,0.00
2012-11-3,84,79,68,68,65,60,80,63,49,29.92,29.83,12,8,0,0.00
2012-11-4,68,66,64,61,60,58,84,81,77,29.90,29.87,5,1,0,0.00
2012-11-6,85,78,68,68,65,61,82,65,49,29.88,29.74,255,15,33,0.00
2012-11-7,87,74,64,69,64,58,87,72,47,29.95,29.81,22,6,33,0.00
2012-11-8,85,74,65,68,65,60,89,73,52,30.00,29.89,21,10,31,0.00
2012-11-9,84,76,71,68,65,60,84,70,48,30.00,29.86,26,17,38,0.00
2012-11-10,74,72,70,66,64,61,82,78,66,29.96,29.90,16,12,27,0.00
2012-11-12,84,76,71,68,66,63,82,71,52,30.02,29.89,24,15,33,0.00
2012-11-13,82,75,70,67,66,63,87,74,53,30.02,29.90,24,16,36,0.00
2012-11-14,72,72,71,66,66,66,83,82,81,30.01,30.00,17,15,26,0.00
2012-11-15,80,75,69,67,65,61,85,71,60,30.04,29.93,25,17,35,0.00
2012-11-16,82,74,68,66,63,60,81,70,53,30.01,29.90,23,14,37,0.00
2012-11-17,82,74,68,67,63,59,81,69,49,30.01,29.87,22,8,35,0.00
2012-11-18,84,74,65,67,64,59,85,71,49,30.02,29.90,15,5,21,0.00
2012-11-19,84,74,67,68,65,62,86,73,52,30.00,29.89,17,6,24,0.00
2012-11-20,82,73,65,68,65,61,89,77,57,29.97,29.85,16,6,24,0.00
2012-11-21,81,74,70,70,66,64,85,78,63,29.91,29.80,11,4,15,0.00
2012-11-22,81,72,67,71,66,62,88,82,63,29.90,29.79,11,3,17,0.00
2012-11-23,82,74,67,72,68,64,91,84,68,29.91,29.80,16,7,23,0.00
2012-11-24,81,73,66,71,67,62,90,82,65,29.91,29.80,20,10,30,0.00
2012-11-25,80,74,69,70,67,65,91,79,62,29.93,29.83,19,11,31,0.00
2012-11-26,77,72,68,67,65,62,92,78,61,29.98,29.86,18,13,29,0.02
2012-11-27,79,72,66,64,62,58,83,71,55,29.99,29.90,20,12,31,0.00
2012-11-28,80,70,59,65,61,53,87,73,57,29.99,29.86,14,5,19,0.00
2012-11-29,65,64,63,60,58,57,85,81,80,29.97,29.94,2,1,0,0.00
2012-12-4,78,76,75,73,72,70,87,84,83,29.95,29.89,8,4,0,0.00
2012-12-5,80,75,72,73,70,67,90,84,74,30.01,29.88,14,5,14,0.00
2012-12-6,83,73,66,71,66,62,91,81,58,29.92,29.79,14,4,20,0.00
2012-12-7,83,74,65,68,65,60,87,75,55,29.92,29.79,15,6,20,0.00
2012-12-8,83,74,65,70,66,61,89,76,57,29.90,29.76,15,5,21,0.00
2012-12-9,84,74,65,70,65,60,88,75,55,29.90,29.74,14,5,24,0.00
2012-12-15,84,75,69,66,62,58,84,66,44,30.02,29.89,14,6,22,0.00
2012-12-16,86,75,69,67,64,60,85,71,44,30.01,29.86,23,12,34,0.00
2012-12-17,83,73,69,69,65,59,88,76,53,30.00,29.87,28,20,42,0.00
2012-12-18,85,73,62,66,60,54,81,65,41,30.00,29.83,26,8,41,0.00
2012-12-19,82,72,62,68,64,57,86,76,59,29.95,29.83,27,13,41,0.00
2012-12-20,76,72,65,68,64,59,87,77,68,29.97,29.83,31,18,47,0.00
2012-12-21,82,72,63,64,59,55,78,65,44,29.96,29.83,21,8,36,0.00
2012-12-22,80,70,60,64,60,54,82,70,49,29.98,29.83,14,5,19,0.00
2012-12-23,66,63,61,60,56,53,80,77,74,29.96,29.92,6,4,0,0.00
2012-12-26,82,77,69,66,64,62,80,65,53,29.95,29.82,15,10,22,0.00
2012-12-27,81,74,65,66,63,58,79,68,53,29.92,29.81,15,7,21,0.00
2012-12-28,80,70,61,66,62,56,84,74,58,29.91,29.82,11,3,0,0.00
2012-12-29,80,71,61,67,63,56,88,77,60,29.95,29.83,14,5,21,0.00
2012-12-30,68,65,63,64,61,59,88,86,85,29.89,29.86,5,2,0,0.00
2012-12-31,81,75,70,71,68,66,88,81,65,30.00,29.89,10,6,0,0.00
2013-1-1,79,72,68,70,67,65,93,85,66,30.02,29.88,22,13,32,0.01